sensor_id;sensor_type;location;lat;lon;timestamp;P1;durP1;ratioP1;P2;durP2;ratioP2
40815;SDS011;26535;48.788;9.214;2023-02-02T00:02:00;10.60;;;1.85;;
40815;SDS011;26535;48.788;9.214;2023-02-02T00:04:27;7.80;;;1.77;;
40815;SDS011;26535;48.788;9.214;2023-02-02T00:06:55;5.90;;;1.77;;
40815;SDS011;26535;48.788;9.214;2023-02-02T00:09:21;6.22;;;1.70;;
40815;SDS011;26535;48.788;9.214;2023-02-02T00:11:48;6.10;;;1.27;;
40815;SDS011;26535;48.788;9.214;2023-02-02T00:14:15;7.57;;;0.90;;
40815;SDS011;26535;48.788;9.214;2023-02-02T00:16:43;5.78;;;1.08;;
40815;SDS011;26535;48.788;9.214;2023-02-02T00:19:10;5.18;;;1.30;;
40815;SDS011;26535;48.788;9.214;2023-02-02T00:21:38;7.82;;;1.52;;
40815;SDS011;26535;48.788;9.214;2023-02-02T00:24:05;6.05;;;1.40;;
40815;SDS011;26535;48.788;9.214;2023-02-02T00:26:32;7.32;;;1.55;;
40815;SDS011;26535;48.788;9.214;2023-02-02T00:28:58;6.32;;;1.45;;
40815;SDS011;26535;48.788;9.214;2023-02-02T06:03:30;7.18;;;1.35;;
40815;SDS011;26535;48.788;9.214;2023-02-02T06:05:56;10.63;;;1.80;;
40815;SDS011;26535;48.788;9.214;2023-02-02T06:08:21;7.57;;;1.20;;
40815;SDS011;26535;48.788;9.214;2023-02-02T06:10:47;5.45;;;1.23;;
40815;SDS011;26535;48.788;9.214;2023-02-02T06:13:13;6.13;;;1.25;;
40815;SDS011;26535;48.788;9.214;2023-02-02T06:15:39;6.45;;;1.20;;
40815;SDS011;26535;48.788;9.214;2023-02-02T06:18:07;6.03;;;1.17;;
40815;SDS011;26535;48.788;9.214;2023-02-02T06:20:32;4.90;;;1.30;;
40815;SDS011;26535;48.788;9.214;2023-02-02T06:22:58;6.22;;;1.60;;
40815;SDS011;26535;48.788;9.214;2023-02-02T06:25:24;7.00;;;1.80;;
40815;SDS011;26535;48.788;9.214;2023-02-02T06:27:53;8.00;;;1.33;;
40815;SDS011;26535;48.788;9.214;2023-02-02T06:30:20;5.07;;;1.17;;
40815;SDS011;26535;48.788;9.214;2023-02-02T06:32:46;8.48;;;1.70;;
40815;SDS011;26535;48.788;9.214;2023-02-02T06:35:12;6.50;;;1.40;;
40815;SDS011;26535;48.788;9.214;2023-02-02T06:37:38;8.10;;;1.50;;
40815;SDS011;26535;48.788;9.214;2023-02-02T06:40:04;9.00;;;2.05;;
40815;SDS011;26535;48.788;9.214;2023-02-02T06:42:31;8.07;;;1.63;;
40815;SDS011;26535;48.788;9.214;2023-02-02T06:44:57;7.15;;;1.80;;
40815;SDS011;26535;48.788;9.214;2023-02-02T06:47:22;8.90;;;1.70;;
40815;SDS011;26535;48.788;9.214;2023-02-02T06:49:48;9.75;;;1.80;;
40815;SDS011;26535;48.788;9.214;2023-02-02T06:52:14;7.50;;;1.48;;
40815;SDS011;26535;48.788;9.214;2023-02-02T06:54:39;6.93;;;1.20;;
40815;SDS011;26535;48.788;9.214;2023-02-02T06:57:05;7.95;;;1.58;;
40815;SDS011;26535;48.788;9.214;2023-02-02T06:59:31;8.90;;;1.85;;
40815;SDS011;26535;48.788;9.214;2023-02-02T07:01:57;4.50;;;1.35;;
40815;SDS011;26535;48.788;9.214;2023-02-02T07:04:22;6.65;;;1.25;;
40815;SDS011;26535;48.788;9.214;2023-02-02T07:06:48;5.63;;;1.88;;
40815;SDS011;26535;48.788;9.214;2023-02-02T07:09:14;8.10;;;1.55;;
40815;SDS011;26535;48.788;9.214;2023-02-02T07:11:40;6.80;;;1.38;;
40815;SDS011;26535;48.788;9.214;2023-02-02T07:14:05;7.70;;;1.05;;
40815;SDS011;26535;48.788;9.214;2023-02-02T07:16:32;6.40;;;1.40;;
40815;SDS011;26535;48.788;9.214;2023-02-02T07:18:58;4.80;;;1.17;;
40815;SDS011;26535;48.788;9.214;2023-02-02T07:21:24;9.63;;;1.50;;
40815;SDS011;26535;48.788;9.214;2023-02-02T07:23:59;5.75;;;1.00;;
40815;SDS011;26535;48.788;9.214;2023-02-02T07:26:29;5.63;;;0.98;;
40815;SDS011;26535;48.788;9.214;2023-02-02T07:28:55;6.22;;;1.15;;
40815;SDS011;26535;48.788;9.214;2023-02-02T07:31:21;6.07;;;0.90;;
40815;SDS011;26535;48.788;9.214;2023-02-02T07:33:49;3.70;;;1.00;;
40815;SDS011;26535;48.788;9.214;2023-02-02T07:36:17;6.10;;;1.20;;
40815;SDS011;26535;48.788;9.214;2023-02-02T07:41:11;3.58;;;0.88;;
40815;SDS011;26535;48.788;9.214;2023-02-02T07:43:45;6.78;;;0.80;;
40815;SDS011;26535;48.788;9.214;2023-02-02T07:46:12;2.85;;;1.08;;
40815;SDS011;26535;48.788;9.214;2023-02-02T07:48:38;5.30;;;1.13;;
40815;SDS011;26535;48.788;9.214;2023-02-02T07:51:06;4.38;;;1.10;;
40815;SDS011;26535;48.788;9.214;2023-02-02T07:53:37;5.80;;;0.90;;
40815;SDS011;26535;48.788;9.214;2023-02-02T07:58:55;3.97;;;0.85;;
40815;SDS011;26535;48.788;9.214;2023-02-02T08:01:26;8.10;;;1.40;;
40815;SDS011;26535;48.788;9.214;2023-02-02T08:04:01;5.82;;;1.58;;
40815;SDS011;26535;48.788;9.214;2023-02-02T08:06:42;5.55;;;0.90;;
40815;SDS011;26535;48.788;9.214;2023-02-02T08:09:13;7.47;;;1.27;;
40815;SDS011;26535;48.788;9.214;2023-02-02T08:11:39;4.60;;;1.10;;
40815;SDS011;26535;48.788;9.214;2023-02-02T08:14:05;5.10;;;1.92;;
40815;SDS011;26535;48.788;9.214;2023-02-02T08:16:32;6.75;;;1.85;;
40815;SDS011;26535;48.788;9.214;2023-02-02T08:18:58;6.32;;;1.38;;
40815;SDS011;26535;48.788;9.214;2023-02-02T08:21:25;5.13;;;1.08;;
40815;SDS011;26535;48.788;9.214;2023-02-02T08:24:04;5.20;;;1.00;;
40815;SDS011;26535;48.788;9.214;2023-02-02T08:26:32;8.52;;;1.33;;
40815;SDS011;26535;48.788;9.214;2023-02-02T08:29:07;3.92;;;1.45;;
40815;SDS011;26535;48.788;9.214;2023-02-02T08:31:38;6.25;;;1.10;;
40815;SDS011;26535;48.788;9.214;2023-02-02T08:34:33;5.70;;;1.10;;
40815;SDS011;26535;48.788;9.214;2023-02-02T08:37:01;7.17;;;1.40;;
40815;SDS011;26535;48.788;9.214;2023-02-02T08:39:27;6.50;;;1.23;;
40815;SDS011;26535;48.788;9.214;2023-02-02T08:41:54;8.10;;;1.50;;
40815;SDS011;26535;48.788;9.214;2023-02-02T08:44:26;6.00;;;1.23;;
40815;SDS011;26535;48.788;9.214;2023-02-02T08:46:51;7.38;;;1.23;;
40815;SDS011;26535;48.788;9.214;2023-02-02T08:49:20;5.82;;;1.48;;
40815;SDS011;26535;48.788;9.214;2023-02-02T08:51:46;7.75;;;1.40;;
40815;SDS011;26535;48.788;9.214;2023-02-02T08:54:12;5.22;;;1.33;;
40815;SDS011;26535;48.788;9.214;2023-02-02T08:56:38;6.10;;;1.13;;
40815;SDS011;26535;48.788;9.214;2023-02-02T08:59:03;5.40;;;1.30;;
40815;SDS011;26535;48.788;9.214;2023-02-02T09:01:30;7.25;;;1.25;;
40815;SDS011;26535;48.788;9.214;2023-02-02T09:06:44;8.70;;;1.30;;
40815;SDS011;26535;48.788;9.214;2023-02-02T09:09:11;7.50;;;1.27;;
40815;SDS011;26535;48.788;9.214;2023-02-02T09:11:39;5.28;;;1.25;;
40815;SDS011;26535;48.788;9.214;2023-02-02T09:14:05;4.75;;;1.35;;
40815;SDS011;26535;48.788;9.214;2023-02-02T09:16:31;4.88;;;1.50;;
40815;SDS011;26535;48.788;9.214;2023-02-02T09:18:58;6.18;;;1.50;;
40815;SDS011;26535;48.788;9.214;2023-02-02T09:21:24;7.88;;;1.20;;
40815;SDS011;26535;48.788;9.214;2023-02-02T09:23:50;6.25;;;1.52;;
40815;SDS011;26535;48.788;9.214;2023-02-02T09:26:24;5.13;;;1.27;;
40815;SDS011;26535;48.788;9.214;2023-02-02T09:28:53;6.25;;;1.52;;
40815;SDS011;26535;48.788;9.214;2023-02-02T09:31:20;4.82;;;1.73;;
40815;SDS011;26535;48.788;9.214;2023-02-02T09:33:47;7.22;;;1.70;;
40815;SDS011;26535;48.788;9.214;2023-02-02T09:36:21;8.35;;;1.33;;
40815;SDS011;26535;48.788;9.214;2023-02-02T09:38:48;6.03;;;2.03;;
40815;SDS011;26535;48.788;9.214;2023-02-02T09:49:21;5.38;;;1.83;;
40815;SDS011;26535;48.788;9.214;2023-02-02T09:52:06;7.95;;;1.90;;
40815;SDS011;26535;48.788;9.214;2023-02-02T09:54:44;8.80;;;2.33;;
40815;SDS011;26535;48.788;9.214;2023-02-02T09:57:20;8.90;;;2.22;;
40815;SDS011;26535;48.788;9.214;2023-02-02T09:59:54;5.25;;;1.50;;
40815;SDS011;26535;48.788;9.214;2023-02-02T10:02:29;8.95;;;2.25;;
40815;SDS011;26535;48.788;9.214;2023-02-02T10:05:13;5.60;;;1.58;;
40815;SDS011;26535;48.788;9.214;2023-02-02T10:07:47;8.27;;;2.05;;
40815;SDS011;26535;48.788;9.214;2023-02-02T10:10:19;9.98;;;1.90;;
40815;SDS011;26535;48.788;9.214;2023-02-02T10:13:16;6.38;;;1.98;;
40815;SDS011;26535;48.788;9.214;2023-02-02T10:18:46;5.50;;;1.50;;
40815;SDS011;26535;48.788;9.214;2023-02-02T10:21:24;9.45;;;1.70;;
40815;SDS011;26535;48.788;9.214;2023-02-02T10:24:17;8.10;;;1.80;;
40815;SDS011;26535;48.788;9.214;2023-02-02T10:26:45;5.40;;;1.40;;
40815;SDS011;26535;48.788;9.214;2023-02-02T10:40:11;9.60;;;1.88;;
40815;SDS011;26535;48.788;9.214;2023-02-02T10:54:33;3.55;;;1.30;;
40815;SDS011;26535;48.788;9.214;2023-02-02T10:57:52;6.20;;;1.40;;
40815;SDS011;26535;48.788;9.214;2023-02-02T11:03:16;6.47;;;1.85;;
40815;SDS011;26535;48.788;9.214;2023-02-02T11:05:49;7.50;;;1.60;;
40815;SDS011;26535;48.788;9.214;2023-02-02T11:08:35;6.03;;;1.45;;
40815;SDS011;26535;48.788;9.214;2023-02-02T11:11:20;7.68;;;1.42;;
40815;SDS011;26535;48.788;9.214;2023-02-02T11:16:20;6.03;;;1.40;;
40815;SDS011;26535;48.788;9.214;2023-02-02T11:18:48;7.20;;;1.48;;
40815;SDS011;26535;48.788;9.214;2023-02-02T11:24:16;5.80;;;1.50;;
40815;SDS011;26535;48.788;9.214;2023-02-02T11:27:33;8.48;;;1.20;;
40815;SDS011;26535;48.788;9.214;2023-02-02T11:37:28;6.55;;;1.67;;
40815;SDS011;26535;48.788;9.214;2023-02-02T11:39:56;5.90;;;1.30;;
40815;SDS011;26535;48.788;9.214;2023-02-02T11:42:50;5.25;;;1.40;;
40815;SDS011;26535;48.788;9.214;2023-02-02T11:45:17;5.13;;;1.38;;
40815;SDS011;26535;48.788;9.214;2023-02-02T11:47:48;6.45;;;1.55;;
40815;SDS011;26535;48.788;9.214;2023-02-02T11:50:25;3.90;;;1.13;;
40815;SDS011;26535;48.788;9.214;2023-02-02T11:52:58;6.03;;;1.58;;
40815;SDS011;26535;48.788;9.214;2023-02-02T11:55:27;4.75;;;1.50;;
40815;SDS011;26535;48.788;9.214;2023-02-02T12:03:35;9.00;;;1.50;;
40815;SDS011;26535;48.788;9.214;2023-02-02T12:08:59;5.70;;;1.35;;
40815;SDS011;26535;48.788;9.214;2023-02-02T12:17:42;5.20;;;1.38;;
40815;SDS011;26535;48.788;9.214;2023-02-02T12:26:00;6.00;;;0.90;;
40815;SDS011;26535;48.788;9.214;2023-02-02T12:50:53;3.65;;;1.10;;
40815;SDS011;26535;48.788;9.214;2023-02-02T12:53:49;6.57;;;1.10;;
40815;SDS011;26535;48.788;9.214;2023-02-02T12:56:53;4.93;;;1.30;;
40815;SDS011;26535;48.788;9.214;2023-02-02T13:07:45;4.97;;;1.42;;
40815;SDS011;26535;48.788;9.214;2023-02-02T13:10:27;6.32;;;1.45;;
40815;SDS011;26535;48.788;9.214;2023-02-02T13:13:00;5.60;;;1.23;;
40815;SDS011;26535;48.788;9.214;2023-02-02T13:15:41;4.50;;;1.35;;
40815;SDS011;26535;48.788;9.214;2023-02-02T13:18:27;4.35;;;1.42;;
40815;SDS011;26535;48.788;9.214;2023-02-02T13:21:02;6.28;;;1.33;;
40815;SDS011;26535;48.788;9.214;2023-02-02T13:23:36;4.47;;;1.30;;
40815;SDS011;26535;48.788;9.214;2023-02-02T13:26:10;4.85;;;1.52;;
40815;SDS011;26535;48.788;9.214;2023-02-02T13:31:30;6.40;;;1.60;;
40815;SDS011;26535;48.788;9.214;2023-02-02T13:34:15;3.83;;;1.30;;
40815;SDS011;26535;48.788;9.214;2023-02-02T13:37:11;5.72;;;1.10;;
40815;SDS011;26535;48.788;9.214;2023-02-02T13:39:47;5.72;;;1.30;;
40815;SDS011;26535;48.788;9.214;2023-02-02T13:42:29;9.70;;;1.98;;
40815;SDS011;26535;48.788;9.214;2023-02-02T13:53:53;6.57;;;1.35;;
40815;SDS011;26535;48.788;9.214;2023-02-02T13:56:55;6.78;;;1.48;;
40815;SDS011;26535;48.788;9.214;2023-02-02T13:59:38;10.25;;;1.60;;
40815;SDS011;26535;48.788;9.214;2023-02-02T14:02:31;7.18;;;1.67;;
40815;SDS011;26535;48.788;9.214;2023-02-02T14:05:06;5.30;;;1.20;;
40815;SDS011;26535;48.788;9.214;2023-02-02T14:07:38;7.75;;;1.30;;
40815;SDS011;26535;48.788;9.214;2023-02-02T14:10:19;6.70;;;1.57;;
40815;SDS011;26535;48.788;9.214;2023-02-02T14:12:51;7.65;;;1.40;;
40815;SDS011;26535;48.788;9.214;2023-02-02T14:15:34;8.65;;;1.40;;
40815;SDS011;26535;48.788;9.214;2023-02-02T14:18:05;7.47;;;1.42;;
40815;SDS011;26535;48.788;9.214;2023-02-02T14:20:39;4.60;;;2.03;;
40815;SDS011;26535;48.788;9.214;2023-02-02T14:23:51;6.07;;;1.40;;
40815;SDS011;26535;48.788;9.214;2023-02-02T14:26:11;7.53;;;1.70;;
40815;SDS011;26535;48.788;9.214;2023-02-02T14:28:45;7.13;;;1.63;;
40815;SDS011;26535;48.788;9.214;2023-02-02T14:31:16;7.72;;;1.88;;
40815;SDS011;26535;48.788;9.214;2023-02-02T14:33:49;6.75;;;1.77;;
40815;SDS011;26535;48.788;9.214;2023-02-02T14:36:15;5.82;;;1.48;;
40815;SDS011;26535;48.788;9.214;2023-02-02T14:41:28;6.72;;;1.40;;
40815;SDS011;26535;48.788;9.214;2023-02-02T14:44:29;9.38;;;2.75;;
40815;SDS011;26535;48.788;9.214;2023-02-02T14:47:01;5.95;;;1.45;;
40815;SDS011;26535;48.788;9.214;2023-02-02T14:49:31;4.05;;;1.17;;
40815;SDS011;26535;48.788;9.214;2023-02-02T14:51:59;7.95;;;1.67;;
40815;SDS011;26535;48.788;9.214;2023-02-02T14:57:23;5.07;;;1.30;;
40815;SDS011;26535;48.788;9.214;2023-02-02T14:59:51;6.10;;;1.98;;
40815;SDS011;26535;48.788;9.214;2023-02-02T15:02:23;4.53;;;1.40;;
40815;SDS011;26535;48.788;9.214;2023-02-02T15:13:19;5.55;;;1.13;;
40815;SDS011;26535;48.788;9.214;2023-02-02T15:15:54;9.45;;;1.85;;
40815;SDS011;26535;48.788;9.214;2023-02-02T15:18:48;7.85;;;1.70;;
40815;SDS011;26535;48.788;9.214;2023-02-02T15:21:44;7.03;;;1.58;;
40815;SDS011;26535;48.788;9.214;2023-02-02T15:24:19;6.88;;;1.20;;
40815;SDS011;26535;48.788;9.214;2023-02-02T15:27:15;10.23;;;1.58;;
40815;SDS011;26535;48.788;9.214;2023-02-02T15:29:44;3.80;;;1.20;;
40815;SDS011;26535;48.788;9.214;2023-02-02T15:32:17;7.55;;;1.40;;
40815;SDS011;26535;48.788;9.214;2023-02-02T15:34:49;5.22;;;1.25;;
40815;SDS011;26535;48.788;9.214;2023-02-02T15:37:25;7.32;;;1.35;;
40815;SDS011;26535;48.788;9.214;2023-02-02T15:40:06;6.18;;;1.10;;
40815;SDS011;26535;48.788;9.214;2023-02-02T15:42:44;7.50;;;1.70;;
40815;SDS011;26535;48.788;9.214;2023-02-02T15:45:59;6.20;;;1.25;;
40815;SDS011;26535;48.788;9.214;2023-02-02T15:48:19;4.43;;;1.38;;
40815;SDS011;26535;48.788;9.214;2023-02-02T15:50:51;7.65;;;1.90;;
40815;SDS011;26535;48.788;9.214;2023-02-02T15:53:27;6.05;;;1.70;;
40815;SDS011;26535;48.788;9.214;2023-02-02T15:56:19;5.93;;;1.30;;
40815;SDS011;26535;48.788;9.214;2023-02-02T15:58:49;5.53;;;1.15;;
40815;SDS011;26535;48.788;9.214;2023-02-02T16:01:24;7.90;;;1.55;;
40815;SDS011;26535;48.788;9.214;2023-02-02T16:06:38;6.10;;;1.63;;
40815;SDS011;26535;48.788;9.214;2023-02-02T16:09:05;3.47;;;1.00;;
40815;SDS011;26535;48.788;9.214;2023-02-02T16:11:32;8.50;;;1.90;;
40815;SDS011;26535;48.788;9.214;2023-02-02T16:14:06;5.95;;;1.35;;
40815;SDS011;26535;48.788;9.214;2023-02-02T16:16:38;4.68;;;1.23;;
40815;SDS011;26535;48.788;9.214;2023-02-02T16:21:35;4.93;;;1.33;;
40815;SDS011;26535;48.788;9.214;2023-02-02T16:24:09;5.85;;;1.38;;
40815;SDS011;26535;48.788;9.214;2023-02-02T16:26:39;4.15;;;1.10;;
40815;SDS011;26535;48.788;9.214;2023-02-02T16:29:13;5.68;;;1.70;;
40815;SDS011;26535;48.788;9.214;2023-02-02T16:31:42;5.50;;;1.52;;
40815;SDS011;26535;48.788;9.214;2023-02-02T16:39:52;4.57;;;1.20;;
40815;SDS011;26535;48.788;9.214;2023-02-02T16:42:22;4.50;;;1.13;;
40815;SDS011;26535;48.788;9.214;2023-02-02T16:44:48;5.65;;;1.15;;
40815;SDS011;26535;48.788;9.214;2023-02-02T16:49:54;4.97;;;1.20;;
40815;SDS011;26535;48.788;9.214;2023-02-02T16:52:33;7.97;;;1.38;;
40815;SDS011;26535;48.788;9.214;2023-02-02T16:55:14;4.40;;;1.10;;
40815;SDS011;26535;48.788;9.214;2023-02-02T16:57:42;3.10;;;1.08;;
40815;SDS011;26535;48.788;9.214;2023-02-02T17:02:46;5.63;;;1.45;;
40815;SDS011;26535;48.788;9.214;2023-02-02T17:05:22;3.63;;;1.20;;
40815;SDS011;26535;48.788;9.214;2023-02-02T17:07:53;5.22;;;1.30;;
40815;SDS011;26535;48.788;9.214;2023-02-02T17:10:32;3.10;;;0.90;;
40815;SDS011;26535;48.788;9.214;2023-02-02T17:13:01;5.38;;;0.93;;
40815;SDS011;26535;48.788;9.214;2023-02-02T17:15:41;3.85;;;0.90;;
40815;SDS011;26535;48.788;9.214;2023-02-02T17:18:07;5.22;;;1.10;;
40815;SDS011;26535;48.788;9.214;2023-02-02T17:20:33;5.80;;;1.25;;
40815;SDS011;26535;48.788;9.214;2023-02-02T17:23:00;3.03;;;0.80;;
40815;SDS011;26535;48.788;9.214;2023-02-02T17:28:24;2.80;;;0.90;;
40815;SDS011;26535;48.788;9.214;2023-02-02T17:30:52;5.65;;;1.42;;
40815;SDS011;26535;48.788;9.214;2023-02-02T17:33:27;4.20;;;0.82;;
40815;SDS011;26535;48.788;9.214;2023-02-02T17:36:03;2.25;;;0.80;;
40815;SDS011;26535;48.788;9.214;2023-02-02T17:38:29;4.70;;;1.00;;
40815;SDS011;26535;48.788;9.214;2023-02-02T17:40:59;5.95;;;1.13;;
40815;SDS011;26535;48.788;9.214;2023-02-02T17:43:27;3.20;;;0.82;;
40815;SDS011;26535;48.788;9.214;2023-02-02T17:45:53;3.78;;;1.00;;
40815;SDS011;26535;48.788;9.214;2023-02-02T17:48:19;4.63;;;0.93;;
40815;SDS011;26535;48.788;9.214;2023-02-02T17:50:45;3.28;;;0.70;;
40815;SDS011;26535;48.788;9.214;2023-02-02T17:53:21;3.25;;;0.77;;
40815;SDS011;26535;48.788;9.214;2023-02-02T17:55:48;2.83;;;0.73;;
40815;SDS011;26535;48.788;9.214;2023-02-02T17:58:20;4.40;;;0.93;;
40815;SDS011;26535;48.788;9.214;2023-02-02T18:00:46;2.58;;;0.90;;
40815;SDS011;26535;48.788;9.214;2023-02-02T18:03:27;2.38;;;0.90;;
40815;SDS011;26535;48.788;9.214;2023-02-02T18:05:59;4.57;;;0.98;;
40815;SDS011;26535;48.788;9.214;2023-02-02T18:08:29;5.47;;;1.10;;
40815;SDS011;26535;48.788;9.214;2023-02-02T18:10:58;4.53;;;0.80;;
40815;SDS011;26535;48.788;9.214;2023-02-02T18:13:28;2.75;;;0.60;;
40815;SDS011;26535;48.788;9.214;2023-02-02T18:15:57;2.83;;;1.05;;
40815;SDS011;26535;48.788;9.214;2023-02-02T18:18:24;4.72;;;1.08;;
40815;SDS011;26535;48.788;9.214;2023-02-02T18:20:53;3.80;;;0.88;;
40815;SDS011;26535;48.788;9.214;2023-02-02T18:23:22;2.55;;;0.90;;
40815;SDS011;26535;48.788;9.214;2023-02-02T18:25:48;4.05;;;1.30;;
40815;SDS011;26535;48.788;9.214;2023-02-02T18:28:14;3.25;;;1.17;;
40815;SDS011;26535;48.788;9.214;2023-02-02T18:30:41;2.92;;;0.80;;
40815;SDS011;26535;48.788;9.214;2023-02-02T18:33:08;4.68;;;2.30;;
40815;SDS011;26535;48.788;9.214;2023-02-02T18:35:42;2.95;;;1.08;;
40815;SDS011;26535;48.788;9.214;2023-02-02T18:38:14;3.92;;;0.93;;
40815;SDS011;26535;48.788;9.214;2023-02-02T18:40:44;2.13;;;1.10;;
40815;SDS011;26535;48.788;9.214;2023-02-02T18:43:17;3.38;;;0.70;;
40815;SDS011;26535;48.788;9.214;2023-02-02T18:45:43;4.25;;;0.82;;
40815;SDS011;26535;48.788;9.214;2023-02-02T18:48:36;2.40;;;0.80;;
40815;SDS011;26535;48.788;9.214;2023-02-02T18:51:06;4.45;;;1.30;;
40815;SDS011;26535;48.788;9.214;2023-02-02T18:53:36;4.03;;;0.80;;
40815;SDS011;26535;48.788;9.214;2023-02-02T18:56:07;4.00;;;0.90;;
40815;SDS011;26535;48.788;9.214;2023-02-02T18:58:35;9.05;;;1.10;;
40815;SDS011;26535;48.788;9.214;2023-02-02T19:01:24;2.72;;;0.80;;
40815;SDS011;26535;48.788;9.214;2023-02-02T19:03:55;2.80;;;0.70;;
40815;SDS011;26535;48.788;9.214;2023-02-02T19:06:21;3.53;;;1.00;;
40815;SDS011;26535;48.788;9.214;2023-02-02T19:09:10;2.42;;;0.80;;
40815;SDS011;26535;48.788;9.214;2023-02-02T19:11:51;3.90;;;0.80;;
40815;SDS011;26535;48.788;9.214;2023-02-02T19:14:25;2.50;;;0.80;;
40815;SDS011;26535;48.788;9.214;2023-02-02T19:17:21;3.13;;;0.90;;
40815;SDS011;26535;48.788;9.214;2023-02-02T19:19:49;3.45;;;0.82;;
40815;SDS011;26535;48.788;9.214;2023-02-02T19:22:19;2.20;;;0.80;;
40815;SDS011;26535;48.788;9.214;2023-02-02T19:24:49;1.98;;;0.57;;
40815;SDS011;26535;48.788;9.214;2023-02-02T19:27:16;2.67;;;1.02;;
40815;SDS011;26535;48.788;9.214;2023-02-02T19:29:51;3.40;;;1.00;;
40815;SDS011;26535;48.788;9.214;2023-02-02T19:32:34;2.10;;;0.70;;
40815;SDS011;26535;48.788;9.214;2023-02-02T19:35:05;5.10;;;0.73;;
40815;SDS011;26535;48.788;9.214;2023-02-02T19:37:42;2.55;;;0.88;;
40815;SDS011;26535;48.788;9.214;2023-02-02T19:42:46;4.50;;;0.95;;
40815;SDS011;26535;48.788;9.214;2023-02-02T19:45:16;4.15;;;0.90;;
40815;SDS011;26535;48.788;9.214;2023-02-02T19:48:19;2.42;;;0.90;;
40815;SDS011;26535;48.788;9.214;2023-02-02T19:50:51;5.43;;;1.05;;
40815;SDS011;26535;48.788;9.214;2023-02-02T19:53:42;3.75;;;1.20;;
40815;SDS011;26535;48.788;9.214;2023-02-02T19:59:15;4.53;;;0.90;;
40815;SDS011;26535;48.788;9.214;2023-02-02T20:01:43;5.53;;;0.90;;
40815;SDS011;26535;48.788;9.214;2023-02-02T20:04:17;1.98;;;0.70;;
40815;SDS011;26535;48.788;9.214;2023-02-02T20:06:46;3.67;;;0.90;;
40815;SDS011;26535;48.788;9.214;2023-02-02T20:09:16;4.03;;;0.85;;
40815;SDS011;26535;48.788;9.214;2023-02-02T20:11:44;1.92;;;0.80;;
40815;SDS011;26535;48.788;9.214;2023-02-02T20:16:52;2.85;;;0.73;;
40815;SDS011;26535;48.788;9.214;2023-02-02T20:19:28;2.88;;;0.85;;
40815;SDS011;26535;48.788;9.214;2023-02-02T20:21:58;4.80;;;1.20;;
40815;SDS011;26535;48.788;9.214;2023-02-02T20:24:36;2.38;;;0.80;;
40815;SDS011;26535;48.788;9.214;2023-02-02T20:27:12;1.52;;;0.60;;
40815;SDS011;26535;48.788;9.214;2023-02-02T20:29:46;2.17;;;0.50;;
40815;SDS011;26535;48.788;9.214;2023-02-02T20:32:19;3.15;;;0.77;;
40815;SDS011;26535;48.788;9.214;2023-02-02T20:34:55;1.83;;;0.60;;
40815;SDS011;26535;48.788;9.214;2023-02-02T20:37:24;1.58;;;0.52;;
40815;SDS011;26535;48.788;9.214;2023-02-02T20:39:56;2.72;;;0.60;;
40815;SDS011;26535;48.788;9.214;2023-02-02T20:42:27;3.00;;;0.55;;
40815;SDS011;26535;48.788;9.214;2023-02-02T20:44:53;1.90;;;0.50;;
40815;SDS011;26535;48.788;9.214;2023-02-02T20:47:20;2.38;;;0.70;;
40815;SDS011;26535;48.788;9.214;2023-02-02T20:49:46;1.92;;;0.52;;
40815;SDS011;26535;48.788;9.214;2023-02-02T20:52:13;1.33;;;0.50;;
40815;SDS011;26535;48.788;9.214;2023-02-02T20:54:47;2.90;;;0.60;;
40815;SDS011;26535;48.788;9.214;2023-02-02T20:57:13;2.05;;;0.60;;
40815;SDS011;26535;48.788;9.214;2023-02-02T20:59:39;2.42;;;0.82;;
40815;SDS011;26535;48.788;9.214;2023-02-02T21:02:05;2.88;;;0.60;;
40815;SDS011;26535;48.788;9.214;2023-02-02T21:04:32;1.58;;;0.63;;
40815;SDS011;26535;48.788;9.214;2023-02-02T21:07:01;2.25;;;0.73;;
40815;SDS011;26535;48.788;9.214;2023-02-02T21:09:26;1.58;;;0.80;;
40815;SDS011;26535;48.788;9.214;2023-02-02T21:11:52;2.70;;;0.80;;
40815;SDS011;26535;48.788;9.214;2023-02-02T21:14:18;2.13;;;0.63;;
40815;SDS011;26535;48.788;9.214;2023-02-02T21:16:44;1.17;;;0.50;;
40815;SDS011;26535;48.788;9.214;2023-02-02T21:19:09;1.75;;;0.75;;
40815;SDS011;26535;48.788;9.214;2023-02-02T21:21:35;3.05;;;0.60;;
40815;SDS011;26535;48.788;9.214;2023-02-02T21:24:01;2.70;;;0.70;;
40815;SDS011;26535;48.788;9.214;2023-02-02T21:26:28;1.73;;;0.60;;
40815;SDS011;26535;48.788;9.214;2023-02-02T21:28:55;1.70;;;0.60;;
40815;SDS011;26535;48.788;9.214;2023-02-02T21:31:22;2.65;;;0.60;;
40815;SDS011;26535;48.788;9.214;2023-02-02T21:33:48;1.75;;;1.17;;
40815;SDS011;26535;48.788;9.214;2023-02-02T21:38:52;2.60;;;0.50;;
40815;SDS011;26535;48.788;9.214;2023-02-02T21:41:18;2.65;;;0.68;;
40815;SDS011;26535;48.788;9.214;2023-02-02T21:43:45;1.90;;;0.40;;
40815;SDS011;26535;48.788;9.214;2023-02-02T21:46:17;1.92;;;0.60;;
40815;SDS011;26535;48.788;9.214;2023-02-02T21:48:44;1.98;;;0.65;;
40815;SDS011;26535;48.788;9.214;2023-02-02T21:51:19;2.28;;;0.60;;
40815;SDS011;26535;48.788;9.214;2023-02-02T21:53:46;2.58;;;0.70;;
40815;SDS011;26535;48.788;9.214;2023-02-02T21:56:20;4.57;;;1.02;;
40815;SDS011;26535;48.788;9.214;2023-02-02T21:58:56;2.50;;;0.70;;
40815;SDS011;26535;48.788;9.214;2023-02-02T22:01:37;2.08;;;0.68;;
40815;SDS011;26535;48.788;9.214;2023-02-02T22:04:14;2.58;;;0.60;;
40815;SDS011;26535;48.788;9.214;2023-02-02T22:06:52;2.50;;;0.70;;
40815;SDS011;26535;48.788;9.214;2023-02-02T22:09:26;2.40;;;0.70;;
40815;SDS011;26535;48.788;9.214;2023-02-02T22:11:55;2.10;;;0.75;;
40815;SDS011;26535;48.788;9.214;2023-02-02T22:14:31;2.10;;;0.75;;
40815;SDS011;26535;48.788;9.214;2023-02-02T22:17:06;4.28;;;0.80;;
40815;SDS011;26535;48.788;9.214;2023-02-02T22:19:54;2.00;;;0.70;;
40815;SDS011;26535;48.788;9.214;2023-02-02T22:22:24;4.20;;;1.05;;
40815;SDS011;26535;48.788;9.214;2023-02-02T22:25:05;2.10;;;0.70;;
40815;SDS011;26535;48.788;9.214;2023-02-02T22:27:41;2.15;;;0.77;;
40815;SDS011;26535;48.788;9.214;2023-02-02T22:30:19;1.73;;;0.80;;
40815;SDS011;26535;48.788;9.214;2023-02-02T22:32:53;3.78;;;0.90;;
40815;SDS011;26535;48.788;9.214;2023-02-02T22:35:19;4.40;;;1.08;;
40815;SDS011;26535;48.788;9.214;2023-02-02T22:37:45;2.75;;;0.80;;
40815;SDS011;26535;48.788;9.214;2023-02-02T22:40:12;4.78;;;1.00;;
40815;SDS011;26535;48.788;9.214;2023-02-02T22:42:38;2.42;;;0.80;;
40815;SDS011;26535;48.788;9.214;2023-02-02T22:45:04;2.30;;;0.73;;
40815;SDS011;26535;48.788;9.214;2023-02-02T22:47:30;2.58;;;0.80;;
40815;SDS011;26535;48.788;9.214;2023-02-02T22:49:56;3.08;;;0.93;;
40815;SDS011;26535;48.788;9.214;2023-02-02T22:52:22;2.75;;;0.70;;
40815;SDS011;26535;48.788;9.214;2023-02-02T22:54:48;3.85;;;0.80;;
40815;SDS011;26535;48.788;9.214;2023-02-02T22:57:13;2.08;;;0.80;;
40815;SDS011;26535;48.788;9.214;2023-02-02T22:59:39;3.55;;;0.95;;
40815;SDS011;26535;48.788;9.214;2023-02-02T23:02:05;2.30;;;1.00;;
40815;SDS011;26535;48.788;9.214;2023-02-02T23:04:31;4.00;;;0.80;;
40815;SDS011;26535;48.788;9.214;2023-02-02T23:06:56;5.68;;;0.80;;
40815;SDS011;26535;48.788;9.214;2023-02-02T23:09:22;2.65;;;0.50;;
40815;SDS011;26535;48.788;9.214;2023-02-02T23:11:48;3.25;;;0.55;;
40815;SDS011;26535;48.788;9.214;2023-02-02T23:14:14;1.48;;;0.40;;
40815;SDS011;26535;48.788;9.214;2023-02-02T23:16:40;2.63;;;0.63;;
40815;SDS011;26535;48.788;9.214;2023-02-02T23:19:05;2.67;;;0.60;;
40815;SDS011;26535;48.788;9.214;2023-02-02T23:21:31;3.10;;;0.50;;
40815;SDS011;26535;48.788;9.214;2023-02-02T23:23:58;3.28;;;0.70;;
40815;SDS011;26535;48.788;9.214;2023-02-02T23:26:24;2.53;;;1.02;;
40815;SDS011;26535;48.788;9.214;2023-02-02T23:28:50;3.88;;;0.70;;
40815;SDS011;26535;48.788;9.214;2023-02-02T23:31:16;2.67;;;0.80;;
40815;SDS011;26535;48.788;9.214;2023-02-02T23:33:42;1.77;;;0.50;;